KHWO/HWO METAR and TAF weather

Enter ICAO airport designator
Station Type Date Time Source
KHWO METAR 2023/02/05 23:53 UTC NOAA

KHWO 052353Z 00000KT 10SM FEW023 SCT049 BKN090 21/19 A3009 RMK AO2 RAE2257B24E52 SLP189 P0000 6//// T02060194 10272 20206 50007 $


Station Type Date Time Source
KHWO Decoded METAR 2023/02/05 23:53 UTC NOAA

HOLLYWOOD NORTH PERRY AIRPORT , FL, United States (KHWO) 26-00N 080-14W 2M
Feb 05, 2023 - 06:53 PM EST / 2023.02.05 2353 UTC
Wind: Calm:0
Visibility: 10 mile(s):0
Sky conditions: mostly cloudy
Precipitation last hour: A trace
Temperature: 69.1 F (20.6 C)
Dew Point: 66.9 F (19.4 C)
Relative Humidity: 92%
Pressure (altimeter): 30.09 in. Hg (1018 hPa)
Pressure tendency: 0.02 inches (0.7 hPa) higher than three hours ago
ob: KHWO 052353Z 00000KT 10SM FEW023 SCT049 BKN090 21/19 A3009 RMK AO2 RAE2257B24E52 SLP189 P0000 6//// T02060194 10272 20206 50007
cycle: 0

Station Type Date Time Source
KHWO TAF 2020/02/03 18:20 UTC NOAA

TAF KHWO 031720Z 0318/0418 12005KT P6SM SKC
FM040000 VRB03KT P6SM SKC
FM041500 14010KT P6SM FEW030

Example: see airport list